Time;durP1;ratioP1;P1;durP2;ratioP2;P2;SDS_P1;SDS_P2;PMS_P1;PMS_P2;Temp;Humidity;BMP_temperature;BMP_pressure;BME280_temperature;BME280_humidity;BME280_pressure;Samples;Min_cycle;Max_cycle;Signal;HPM_P1;HPM_P2
2021/10/29 00:01:59;;;;;;;589.17;59.50;;;;;;;12.24;55.05;95345.41;5007177;28;20168;-70
2021/10/29 00:04:24;;;;;;;177.23;38.13;;;;;;;12.26;55.30;95340.56;5000788;28;20026;-72
2021/10/29 00:06:50;;;;;;;397.38;47.60;;;;;;;12.37;54.71;95333.84;5009592;28;20054;-71
2021/10/29 00:09:15;;;;;;;125.20;36.25;;;;;;;12.42;54.21;95331.03;5009447;28;20494;-72
2021/10/29 00:11:41;;;;;;;216.70;36.50;;;;;;;12.46;54.28;95326.63;5009038;28;20037;-71
2021/10/29 00:14:06;;;;;;;166.68;38.67;;;;;;;12.51;54.53;95335.59;5009185;28;20551;-70
2021/10/29 00:16:32;;;;;;;260.60;43.88;;;;;;;12.51;54.54;95335.59;5005486;28;20026;-72
2021/10/29 00:18:57;;;;;;;120.85;35.20;;;;;;;12.49;54.33;95336.69;5004500;28;20618;-71
2021/10/29 00:21:23;;;;;;;198.65;36.33;;;;;;;12.44;54.03;95328.84;5011186;28;20034;-70
2021/10/29 00:23:48;;;;;;;79.90;28.90;;;;;;;12.44;54.10;95317.41;5012498;28;20022;-69
2021/10/29 00:26:13;;;;;;;76.88;29.30;;;;;;;12.53;53.81;95336.84;5012978;28;20022;-70
2021/10/29 00:28:39;;;;;;;107.88;29.00;;;;;;;12.58;53.39;95338.59;5012824;28;20061;-71
2021/10/29 00:31:05;;;;;;;80.45;28.42;;;;;;;12.58;53.81;95323.34;5003781;28;20036;-70
2021/10/29 00:33:30;;;;;;;208.18;37.20;;;;;;;12.45;53.41;95319.75;5012111;28;20360;-71
2021/10/29 00:35:56;;;;;;;91.50;30.02;;;;;;;12.53;53.42;95326.19;5004384;28;20022;-71
2021/10/29 00:38:21;;;;;;;335.05;40.13;;;;;;;12.49;53.30;95323.38;5012377;28;20026;-71
2021/10/29 00:40:46;;;;;;;75.45;28.60;;;;;;;12.59;53.16;95324.97;5011982;28;20029;-72
2021/10/29 00:43:12;;;;;;;65.22;27.40;;;;;;;12.58;53.02;95328.69;5012021;28;20053;-71
2021/10/29 00:45:38;;;;;;;217.52;35.42;;;;;;;12.46;52.92;95307.97;5004239;28;20038;-71
2021/10/29 00:48:04;;;;;;;114.30;25.92;;;;;;;12.46;53.13;95307.97;5011295;28;20038;-71
2021/10/29 00:50:30;;;;;;;116.35;26.08;;;;;;;12.40;52.93;95319.88;5003355;28;20386;-70
2021/10/29 00:52:56;;;;;;;73.50;25.60;;;;;;;12.47;52.90;95322.88;5011830;28;20029;-70
2021/10/29 00:55:22;;;;;;;276.80;32.70;;;;;;;12.37;52.73;95319.72;5012175;28;20085;-71
2021/10/29 00:57:50;;;;;;;359.15;46.05;;;;;;;12.33;53.11;95314.19;5011963;28;20053;-70
2021/10/29 01:00:18;;;;;;;117.68;29.95;;;;;;;12.34;53.10;95321.13;5008232;28;20018;-70
2021/10/29 01:02:43;;;;;;;292.25;40.40;;;;;;;12.25;53.33;95312.31;5007880;28;20627;-70
2021/10/29 01:05:09;;;;;;;193.73;35.10;;;;;;;12.27;53.46;95310.13;5003576;28;20105;-71
2021/10/29 01:07:35;;;;;;;125.97;29.40;;;;;;;12.26;53.19;95313.09;5011839;28;20033;-70
2021/10/29 01:10:03;;;;;;;324.58;43.22;;;;;;;12.26;53.52;95302.44;5011917;28;20064;-71
2021/10/29 01:12:28;;;;;;;281.77;40.90;;;;;;;12.30;53.29;95296.16;5011281;28;20025;-70
2021/10/29 01:14:56;;;;;;;114.63;26.42;;;;;;;12.38;52.98;95300.72;5011517;28;20076;-71
2021/10/29 01:17:21;;;;;;;119.30;28.80;;;;;;;12.42;52.82;95296.34;5004809;28;20518;-70
2021/10/29 01:19:51;;;;;;;64.85;24.13;;;;;;;12.43;53.04;95291.78;5006001;28;20030;-71
2021/10/29 01:22:16;;;;;;;58.92;24.10;;;;;;;12.48;52.89;95286.31;5008884;28;20034;-71
2021/10/29 01:24:41;;;;;;;111.57;25.92;;;;;;;12.49;52.19;95293.22;5011315;28;20028;-71
2021/10/29 01:27:12;;;;;;;76.63;23.77;;;;;;;12.45;52.60;95292.28;5011794;28;20018;-70
2021/10/29 01:29:38;;;;;;;93.32;24.60;;;;;;;12.46;52.82;95281.28;5010627;28;20030;-71
2021/10/29 01:32:05;;;;;;;74.43;22.63;;;;;;;12.45;52.40;95273.59;5004976;28;20423;-72
2021/10/29 01:34:32;;;;;;;68.32;21.52;;;;;;;12.46;52.64;95261.84;5002407;28;20441;-70
2021/10/29 01:36:58;;;;;;;55.33;19.17;;;;;;;12.43;52.29;95267.78;5007122;28;20061;-70
2021/10/29 01:39:23;;;;;;;303.50;31.40;;;;;;;12.35;52.36;95256.00;5011404;28;20441;-71
2021/10/29 01:41:49;;;;;;;171.07;25.95;;;;;;;12.36;52.18;95252.25;5011006;28;20026;-70
2021/10/29 01:44:14;;;;;;;65.70;21.73;;;;;;;12.41;52.40;95251.31;5010992;28;20499;-71
2021/10/29 01:46:40;;;;;;;43.95;19.13;;;;;;;12.45;52.44;95249.59;5005820;28;20033;-71
2021/10/29 01:49:06;;;;;;;103.60;23.02;;;;;;;12.55;52.25;95259.97;5010793;28;20619;-70
2021/10/29 01:51:31;;;;;;;89.63;23.75;;;;;;;12.39;52.47;95245.50;5002647;28;20038;-70
2021/10/29 01:53:58;;;;;;;221.73;29.60;;;;;;;12.41;52.63;95249.44;5010756;28;20100;-70
2021/10/29 01:56:23;;;;;;;68.75;21.83;;;;;;;12.50;52.49;95257.44;5009955;28;20028;-70
2021/10/29 01:58:49;;;;;;;111.93;22.25;;;;;;;12.48;52.27;95248.94;5010953;28;20022;-70
2021/10/29 02:01:15;;;;;;;48.33;18.60;;;;;;;12.46;52.42;95249.28;5005435;28;20025;-70
2021/10/29 02:03:40;;;;;;;89.05;20.35;;;;;;;12.57;52.32;95256.97;5010414;28;20395;-71
2021/10/29 02:06:06;;;;;;;43.70;19.60;;;;;;;12.47;52.77;95228.72;4994293;28;20033;-69
2021/10/29 02:08:32;;;;;;;327.70;36.45;;;;;;;12.53;52.38;95234.69;4991292;28;20026;-70
2021/10/29 02:10:57;;;;;;;258.13;36.63;;;;;;;12.59;52.30;95239.56;4990425;28;20387;-70
2021/10/29 02:13:23;;;;;;;371.90;36.72;;;;;;;12.49;52.19;95239.88;4990735;28;20030;-70
2021/10/29 02:15:48;;;;;;;242.85;31.70;;;;;;;12.40;52.64;95223.84;4991075;28;20073;-70
2021/10/29 02:18:14;;;;;;;232.10;29.73;;;;;;;12.43;52.71;95236.56;5010505;28;20053;-70
2021/10/29 02:20:39;;;;;;;164.05;29.15;;;;;;;12.38;52.76;95227.91;5004279;28;20128;-70
2021/10/29 02:23:05;;;;;;;320.48;38.08;;;;;;;12.11;52.67;95223.66;4990589;28;20034;-70
2021/10/29 02:25:30;;;;;;;515.00;40.78;;;;;;;12.08;53.02;95218.94;4990968;28;20054;-70
2021/10/29 02:27:56;;;;;;;367.15;37.22;;;;;;;12.17;53.57;95227.72;4991089;28;20045;-70
2021/10/29 02:30:21;;;;;;;296.58;33.38;;;;;;;12.01;53.69;95226.59;4989881;28;20037;-70
2021/10/29 02:32:47;;;;;;;438.55;42.15;;;;;;;12.00;53.70;95230.38;5006598;28;20029;-70
2021/10/29 02:35:12;;;;;;;349.45;39.50;;;;;;;11.94;54.04;95211.84;5001848;28;20031;-70
2021/10/29 02:37:38;;;;;;;243.68;29.48;;;;;;;12.08;53.46;95217.06;5010433;28;20321;-70
2021/10/29 02:40:04;;;;;;;116.43;28.67;;;;;;;11.89;53.33;95216.56;5010137;28;20105;-70
2021/10/29 02:42:29;;;;;;;300.23;34.03;;;;;;;11.98;53.78;95217.38;5008649;28;20049;-70
2021/10/29 02:44:55;;;;;;;312.25;36.65;;;;;;;12.08;53.24;95219.75;5009110;28;20408;-70
2021/10/29 02:47:20;;;;;;;180.13;28.20;;;;;;;12.10;53.30;95209.53;5006288;28;20061;-70
2021/10/29 02:49:45;;;;;;;230.77;33.17;;;;;;;12.16;53.82;95218.94;5004394;28;20026;-71
2021/10/29 02:52:11;;;;;;;332.63;35.72;;;;;;;12.08;53.85;95210.94;5007120;28;20080;-70
2021/10/29 02:54:37;;;;;;;239.43;31.35;;;;;;;12.04;53.87;95202.78;5009807;28;20109;-70
2021/10/29 02:57:03;;;;;;;431.95;34.38;;;;;;;11.75;54.12;95199.84;5010076;28;20101;-70
2021/10/29 02:59:29;;;;;;;398.92;38.10;;;;;;;11.82;54.00;95198.31;5010052;28;20080;-70
2021/10/29 03:01:54;;;;;;;570.22;52.40;;;;;;;11.91;54.01;95201.81;5006872;28;20041;-70
2021/10/29 03:04:20;;;;;;;303.17;34.40;;;;;;;11.78;54.42;95200.03;5007303;28;20028;-70
2021/10/29 03:06:45;;;;;;;370.15;40.50;;;;;;;11.89;53.66;95200.56;5003904;28;20045;-70
2021/10/29 03:09:11;;;;;;;433.75;37.60;;;;;;;11.91;53.99;95199.13;5009851;28;20092;-70
2021/10/29 03:11:36;;;;;;;474.30;46.63;;;;;;;11.96;53.95;95201.66;5008102;28;20353;-70
2021/10/29 03:14:01;;;;;;;178.02;34.85;;;;;;;12.02;53.48;95204.19;5009655;28;20032;-70
2021/10/29 03:16:27;;;;;;;436.05;42.33;;;;;;;11.87;53.93;95187.53;5007887;28;20089;-70
2021/10/29 03:18:52;;;;;;;411.50;46.20;;;;;;;11.94;53.63;95193.19;5009316;28;20022;-70
2021/10/29 03:21:18;;;;;;;437.42;49.58;;;;;;;11.99;53.55;95199.47;4991243;28;20084;-70
2021/10/29 03:23:43;;;;;;;348.63;38.15;;;;;;;12.05;53.87;95198.25;4989663;28;20105;-70
2021/10/29 03:26:10;;;;;;;297.92;40.95;;;;;;;12.03;53.47;95200.41;4990089;28;20065;-70
2021/10/29 03:28:35;;;;;;;333.85;39.00;;;;;;;11.48;55.07;95193.66;4990547;28;20472;-72
2021/10/29 03:31:01;;;;;;;383.55;40.22;;;;;;;11.60;54.28;95193.84;4991448;28;20026;-72
2021/10/29 03:33:26;;;;;;;641.42;54.33;;;;;;;11.68;54.33;95195.00;5009082;28;20447;-71
2021/10/29 03:35:52;;;;;;;397.00;42.95;;;;;;;11.56;54.24;95187.56;5001474;28;20026;-72
2021/10/29 03:38:42;;;;;;;340.40;40.20;;;;;;;11.64;54.28;95189.47;5009788;28;20401;-72
2021/10/29 03:41:10;;;;;;;196.30;36.28;;;;;;;11.70;54.49;95187.47;5009223;28;20018;-72
2021/10/29 03:46:13;;;;;;;403.88;34.83;;;;;;;11.08;55.09;95180.31;5008851;28;20124;-72
2021/10/29 03:51:20;;;;;;;479.30;43.65;;;;;;;11.20;54.56;95169.09;5001198;28;20036;-71
2021/10/29 03:56:21;;;;;;;285.77;34.70;;;;;;;11.35;54.36;95178.56;5013731;28;20033;-71
2021/10/29 03:58:50;;;;;;;417.38;36.45;;;;;;;11.41;53.63;95172.81;5011980;28;20037;-72
2021/10/29 04:01:16;;;;;;;170.60;29.63;;;;;;;11.49;53.97;95171.25;5008045;28;20026;-71
2021/10/29 04:03:45;;;;;;;144.10;27.58;;;;;;;11.28;53.26;95152.38;5008831;28;20598;-71
2021/10/29 04:06:11;;;;;;;342.70;32.95;;;;;;;11.35;53.58;95165.25;4999780;28;20494;-71
2021/10/29 04:08:37;;;;;;;286.90;32.08;;;;;;;11.36;53.06;95164.16;5013231;28;20037;-72
2021/10/29 04:11:03;;;;;;;525.90;37.55;;;;;;;11.42;53.10;95168.25;5011157;28;20025;-71
2021/10/29 04:13:34;;;;;;;70.88;24.15;;;;;;;11.52;53.49;95169.88;5012729;28;20439;-71
2021/10/29 04:16:04;;;;;;;113.45;25.02;;;;;;;11.48;52.60;95163.59;5011133;28;20104;-71
2021/10/29 04:18:30;;;;;;;45.17;21.00;;;;;;;11.66;52.69;95170.50;5007397;28;20014;-71
2021/10/29 04:20:56;;;;;;;60.25;20.42;;;;;;;11.72;52.55;95171.97;5003878;28;20030;-71
2021/10/29 04:23:22;;;;;;;461.67;41.78;;;;;;;11.69;52.01;95168.03;5011200;28;20601;-71
2021/10/29 04:25:48;;;;;;;123.00;23.98;;;;;;;11.70;52.28;95156.25;5012779;28;20026;-72
2021/10/29 04:28:13;;;;;;;124.20;22.83;;;;;;;11.76;51.99;95170.22;5012612;28;20022;-71
2021/10/29 04:30:43;;;;;;;281.48;31.60;;;;;;;11.76;52.11;95170.22;5012382;28;20034;-73
2021/10/29 04:33:09;;;;;;;90.57;22.67;;;;;;;11.67;51.88;95164.91;5005107;28;20383;-71
2021/10/29 04:35:36;;;;;;;166.73;25.05;;;;;;;11.67;51.69;95166.78;5005701;28;20019;-73
2021/10/29 04:38:04;;;;;;;61.92;20.00;;;;;;;11.68;51.82;95155.03;4992903;28;20026;-72
2021/10/29 04:40:30;;;;;;;522.90;35.75;;;;;;;11.04;52.01;95165.25;4992754;28;20177;-72
2021/10/29 04:42:55;;;;;;;117.50;22.83;;;;;;;11.30;52.22;95160.84;4992682;28;20229;-72
2021/10/29 04:45:21;;;;;;;184.57;23.55;;;;;;;11.33;51.96;95157.56;4991628;28;20026;-77
2021/10/29 04:47:46;;;;;;;88.05;21.55;;;;;;;11.16;52.38;95152.97;5005823;28;20057;-73
2021/10/29 04:50:12;;;;;;;246.25;31.88;;;;;;;11.15;53.32;95143.38;5010654;28;20037;-70
2021/10/29 04:52:38;;;;;;;97.82;25.02;;;;;;;11.29;52.83;95137.19;5004777;28;20400;-73
2021/10/29 04:55:04;;;;;;;65.05;25.75;;;;;;;11.10;53.15;95138.19;5012164;28;20018;-73
2021/10/29 04:57:29;;;;;;;103.20;27.58;;;;;;;11.23;53.14;95131.22;5012266;28;20030;-73
2021/10/29 04:59:57;;;;;;;33.83;22.55;;;;;;;11.32;52.78;95136.59;5012213;28;20652;-73
2021/10/29 05:02:22;;;;;;;188.52;28.90;;;;;;;11.29;52.76;95119.34;5004547;28;20107;-72
2021/10/29 05:04:48;;;;;;;294.67;35.53;;;;;;;11.36;52.26;95119.69;5011695;28;20049;-71
2021/10/29 05:07:13;;;;;;;76.85;21.98;;;;;;;11.44;52.08;95136.78;5003484;28;20474;-73
2021/10/29 05:09:38;;;;;;;147.73;24.70;;;;;;;11.29;51.34;95122.00;5011934;28;20040;-70
2021/10/29 05:12:04;;;;;;;121.00;27.00;;;;;;;11.39;51.40;95132.38;5011353;28;20037;-70
2021/10/29 05:14:29;;;;;;;72.38;25.90;;;;;;;11.42;51.41;95129.09;5011450;28;20484;-71
2021/10/29 05:16:55;;;;;;;62.75;25.15;;;;;;;11.51;51.23;95129.09;5005943;28;20369;-71
2021/10/29 05:19:20;;;;;;;36.05;19.88;;;;;;;11.43;51.33;95122.66;5011398;28;20022;-70
2021/10/29 05:21:46;;;;;;;137.98;22.40;;;;;;;11.18;51.40;95126.81;4997048;28;20034;-71
2021/10/29 05:24:11;;;;;;;98.13;22.98;;;;;;;10.83;52.78;95128.53;4991957;28;20037;-73
2021/10/29 05:26:37;;;;;;;137.05;28.95;;;;;;;11.08;51.63;95131.63;4992152;28;20448;-72
2021/10/29 05:29:03;;;;;;;201.70;24.88;;;;;;;9.99;54.16;95107.16;4991887;28;20391;-72
2021/10/29 05:31:30;;;;;;;50.13;21.83;;;;;;;10.67;54.14;95137.97;4991366;28;20261;-73
2021/10/29 05:33:55;;;;;;;161.23;24.90;;;;;;;10.85;53.24;95130.88;5008981;28;20018;-73
2021/10/29 05:36:21;;;;;;;341.85;43.97;;;;;;;11.04;53.01;95130.66;5002909;28;20073;-73
2021/10/29 05:38:46;;;;;;;59.97;21.92;;;;;;;11.22;52.57;95128.88;5011067;28;20022;-65
2021/10/29 05:41:12;;;;;;;129.00;31.20;;;;;;;10.96;52.88;95134.09;5010836;28;20026;-62
2021/10/29 05:43:37;;;;;;;274.40;38.65;;;;;;;11.08;52.57;95128.97;5010748;28;20068;-65
2021/10/29 05:46:03;;;;;;;203.18;29.65;;;;;;;10.89;53.28;95124.63;5011108;28;20103;-62
2021/10/29 05:48:29;;;;;;;252.73;28.38;;;;;;;10.17;54.86;95132.75;5006615;28;20061;-73
2021/10/29 05:50:55;;;;;;;103.75;22.67;;;;;;;10.24;54.36;95135.81;5004722;28;20065;-79
2021/10/29 05:56:07;;;;;;;135.27;24.63;;;;;;;9.72;57.11;95132.66;4971892;28;20034;-74
2021/10/29 05:58:35;;;;;;;241.30;28.90;;;;;;;10.05;56.10;95138.59;5011562;28;20026;-78
2021/10/29 06:01:01;;;;;;;140.10;23.27;;;;;;;9.84;55.89;95146.25;5012870;28;20033;-84
2021/10/29 06:03:26;;;;;;;200.70;23.83;;;;;;;8.57;59.63;95144.13;5007763;28;20117;-73
2021/10/29 06:05:52;;;;;;;184.25;24.27;;;;;;;8.60;59.91;95156.03;5012324;28;20076;-74
2021/10/29 06:08:18;;;;;;;214.50;24.67;;;;;;;7.99;61.79;95146.34;5010943;28;20030;-82
2021/10/29 06:10:43;;;;;;;320.63;27.50;;;;;;;8.53;61.18;95153.72;5012413;28;20061;-81
2021/10/29 06:13:09;;;;;;;214.80;25.25;;;;;;;8.12;61.85;95166.78;5012039;28;20107;-77
2021/10/29 06:15:36;;;;;;;188.70;24.08;;;;;;;8.46;61.50;95152.53;5010851;28;20022;-75
2021/10/29 06:18:01;;;;;;;182.90;23.70;;;;;;;8.70;60.19;95149.75;5008529;28;20030;-72
2021/10/29 06:20:27;;;;;;;238.10;26.45;;;;;;;9.25;58.75;95150.59;5010014;28;20076;-72
2021/10/29 06:22:54;;;;;;;127.32;24.23;;;;;;;9.78;58.27;95163.38;4996522;28;20038;-74
2021/10/29 06:25:21;;;;;;;146.80;25.30;;;;;;;9.74;57.42;95156.28;4992227;28;20464;-78
2021/10/29 06:30:39;;;;;;;98.90;18.58;;;;;;;9.63;56.79;95156.50;4991251;28;20092;-72
2021/10/29 06:33:05;;;;;;;56.58;21.38;;;;;;;10.21;55.69;95155.00;5002635;28;20045;-79
2021/10/29 06:35:31;;;;;;;96.15;19.58;;;;;;;9.94;55.89;95134.63;5006616;28;20398;-81
2021/10/29 06:38:00;;;;;;;67.07;17.17;;;;;;;9.02;57.21;95154.25;4997073;28;20101;-76
2021/10/29 06:40:30;;;;;;;30.63;16.73;;;;;;;10.10;56.13;95161.63;4992559;28;20072;-86
2021/10/29 06:43:00;;;;;;;141.25;24.90;;;;;;;10.57;54.52;95141.69;4993050;28;20072;-74
2021/10/29 07:01:53;;;;;;;92.88;18.63;;;;;;;8.60;61.55;95161.34;5011647;28;20609;-79
2021/10/29 07:42:17;;;;;;;44.38;14.13;;;;;;;10.77;54.66;95172.31;4993213;28;20042;-69
2021/10/29 07:44:43;;;;;;;68.13;14.30;;;;;;;10.12;56.90;95178.06;4993494;28;20412;-70
2021/10/29 07:47:08;;;;;;;36.38;13.50;;;;;;;9.87;56.40;95182.81;4993252;28;20026;-72
2021/10/29 07:49:34;;;;;;;41.92;13.43;;;;;;;10.35;55.68;95185.00;5008221;28;20558;-70
2021/10/29 07:51:59;;;;;;;26.95;14.75;;;;;;;10.60;54.31;95191.63;5005155;28;20030;-70
2021/10/29 07:54:26;;;;;;;32.97;13.32;;;;;;;8.72;59.56;95200.66;5012162;28;20053;-70
2021/10/29 07:56:51;;;;;;;18.02;13.48;;;;;;;9.90;57.09;95198.19;5012499;28;20441;-70
2021/10/29 07:59:21;;;;;;;48.45;13.73;;;;;;;9.20;58.56;95197.69;5012352;28;20030;-71
2021/10/29 08:01:47;;;;;;;30.98;13.38;;;;;;;9.13;58.25;95210.56;5012416;28;20030;-69
2021/10/29 08:04:13;;;;;;;38.05;12.80;;;;;;;8.43;61.45;95203.47;5004646;28;20037;-70
2021/10/29 08:06:38;;;;;;;63.90;13.40;;;;;;;9.14;59.79;95196.22;5008309;28;20383;-70
2021/10/29 08:09:04;;;;;;;23.30;11.95;;;;;;;10.92;56.42;95184.47;4993556;28;20019;-70
2021/10/29 08:11:29;;;;;;;27.80;11.25;;;;;;;10.54;54.75;95176.84;4992504;28;20065;-70
2021/10/29 08:13:54;;;;;;;25.30;12.02;;;;;;;9.94;55.44;95194.94;4992946;28;20053;-70
2021/10/29 08:16:20;;;;;;;49.15;12.32;;;;;;;9.18;57.86;95194.56;4993006;28;20085;-70
2021/10/29 08:18:47;;;;;;;32.22;13.90;;;;;;;10.54;55.64;95197.34;5000774;28;20105;-72
2021/10/29 08:21:13;;;;;;;14.70;11.23;;;;;;;11.85;53.31;95196.94;5010757;28;20038;-69
2021/10/29 08:23:43;;;;;;;10.45;9.55;;;;;;;12.66;51.85;95191.84;5005218;28;20125;-71
2021/10/29 08:26:11;;;;;;;10.32;9.50;;;;;;;13.19;49.59;95193.31;5012432;28;20029;-69
2021/10/29 08:28:39;;;;;;;10.88;9.77;;;;;;;13.57;48.40;95183.78;5012947;28;20618;-69
2021/10/29 08:31:05;;;;;;;18.20;13.85;;;;;;;13.44;47.43;95183.66;5012022;28;20026;-69
2021/10/29 08:33:30;;;;;;;17.27;13.20;;;;;;;13.37;47.88;95194.06;5005451;28;20539;-69
2021/10/29 08:35:56;;;;;;;12.95;11.27;;;;;;;13.49;46.96;95183.50;5012240;28;20026;-69
2021/10/29 08:38:22;;;;;;;9.82;8.82;;;;;;;14.03;46.93;95182.91;5003978;28;20095;-70
2021/10/29 08:40:49;;;;;;;10.88;9.82;;;;;;;14.43;45.66;95191.25;5011787;28;20195;-69
2021/10/29 08:43:15;;;;;;;10.27;9.38;;;;;;;14.62;45.36;95174.78;5012306;28;20101;-69
2021/10/29 08:45:42;;;;;;;25.30;11.80;;;;;;;12.97;47.38;95191.63;5011281;28;20114;-69
2021/10/29 08:48:08;;;;;;;13.68;12.27;;;;;;;13.07;47.63;95182.50;5005760;28;20033;-69
2021/10/29 08:50:34;;;;;;;14.25;10.38;;;;;;;13.52;47.76;95190.09;5011451;28;20026;-69
2021/10/29 08:53:02;;;;;;;45.08;14.20;;;;;;;14.00;46.61;95178.97;4995116;28;20472;-69
2021/10/29 08:55:28;;;;;;;11.52;10.27;;;;;;;13.50;46.26;95182.38;4992679;28;20022;-69
2021/10/29 08:57:59;;;;;;;25.02;11.43;;;;;;;11.76;51.32;95190.75;4992796;28;20030;-70
2021/10/29 09:00:28;;;;;;;19.15;11.77;;;;;;;12.62;49.52;95196.22;4992302;28;20030;-70
2021/10/29 09:03:14;;;;;;;12.73;11.00;;;;;;;12.95;49.01;95193.84;4992894;28;20042;-69
2021/10/29 09:05:51;;;;;;;23.13;11.38;;;;;;;11.34;51.98;95200.97;5011791;28;20048;-69
2021/10/29 09:08:32;;;;;;;25.27;10.98;;;;;;;11.81;52.03;95191.41;5003200;28;20022;-69
2021/10/29 09:31:35;;;;;;;10.07;9.27;;;;;;;15.58;44.98;95174.56;5011135;28;20576;-69
2021/10/29 09:34:10;;;;;;;10.13;8.70;;;;;;;15.94;43.62;95168.44;5006585;28;20025;-69
2021/10/29 09:36:41;;;;;;;9.85;8.95;;;;;;;16.37;42.42;95169.72;4997534;28;20499;-69
2021/10/29 09:39:09;;;;;;;9.82;8.88;;;;;;;16.57;42.38;95159.91;4991759;28;20478;-69
2021/10/29 09:41:38;;;;;;;10.45;9.35;;;;;;;15.27;42.45;95164.38;4991139;28;20026;-70
2021/10/29 09:44:11;;;;;;;9.55;8.73;;;;;;;14.86;44.59;95166.06;4991312;28;20033;-70
2021/10/29 09:46:48;;;;;;;10.80;9.63;;;;;;;14.28;46.06;95157.09;4991197;28;20026;-70
2021/10/29 09:49:29;;;;;;;11.02;10.07;;;;;;;13.18;48.28;95154.34;5002761;28;20125;-70
2021/10/29 09:57:15;;;;;;;10.25;9.40;;;;;;;13.29;49.13;95130.75;4991691;28;20558;-69
2021/10/29 09:59:40;;;;;;;11.43;10.27;;;;;;;14.57;47.35;95154.34;4991168;28;20034;-70
2021/10/29 10:02:06;;;;;;;11.05;10.05;;;;;;;15.40;45.71;95146.41;4990701;28;20026;-69
2021/10/29 10:04:34;;;;;;;9.95;9.07;;;;;;;16.07;44.19;95145.88;5003378;28;20026;-69
2021/10/29 10:07:00;;;;;;;10.48;9.68;;;;;;;16.06;43.50;95151.53;5003161;28;20026;-69
2021/10/29 10:09:27;;;;;;;11.38;10.48;;;;;;;15.29;43.70;95144.16;5009975;28;20033;-69
2021/10/29 10:11:55;;;;;;;11.55;10.55;;;;;;;15.46;44.09;95153.13;5010517;28;20037;-69
2021/10/29 10:14:33;;;;;;;12.57;11.48;;;;;;;15.77;42.80;95141.88;5010879;28;20018;-72
2021/10/29 10:16:59;;;;;;;12.45;11.10;;;;;;;15.60;43.62;95130.22;5009452;28;20037;-70
2021/10/29 10:19:25;;;;;;;12.52;11.25;;;;;;;15.82;43.42;95136.28;5007516;28;20022;-70
2021/10/29 10:21:54;;;;;;;15.48;10.50;;;;;;;15.97;43.40;95143.66;5003248;28;20026;-70
2021/10/29 10:24:25;;;;;;;10.13;9.32;;;;;;;15.48;43.30;95142.84;5008925;28;20434;-70
2021/10/29 10:29:31;;;;;;;11.25;10.35;;;;;;;13.79;47.01;95138.84;5010292;28;20049;-70
2021/10/29 10:48:32;;;;;;;10.38;9.57;;;;;;;10.63;57.59;95150.31;5008340;28;20395;-72
2021/10/29 10:54:16;;;;;;;12.43;11.18;;;;;;;11.16;55.68;95137.00;5002084;28;20119;-71
2021/10/29 11:11:05;;;;;;;11.57;10.63;;;;;;;10.59;57.80;95130.72;4989783;28;20161;-72
2021/10/29 11:13:43;;;;;;;12.30;11.02;;;;;;;10.88;57.14;95115.09;4988817;28;20109;-72
2021/10/29 11:16:10;;;;;;;11.57;10.65;;;;;;;11.17;55.71;95108.50;4990384;28;20018;-74
2021/10/29 11:18:38;;;;;;;13.13;12.02;;;;;;;12.03;53.47;95104.44;4989862;28;20468;-71
2021/10/29 11:21:19;;;;;;;11.70;10.70;;;;;;;12.39;52.72;95098.81;5008179;28;20032;-71
2021/10/29 11:24:12;;;;;;;12.20;11.00;;;;;;;11.96;53.79;95096.91;4969090;28;20047;-71
2021/10/29 11:26:47;;;;;;;11.93;10.93;;;;;;;12.53;52.43;95106.59;4969933;28;20043;-73
2021/10/29 11:29:13;;;;;;;12.45;11.23;;;;;;;11.59;54.77;95099.03;4970539;28;20106;-71
2021/10/29 11:31:51;;;;;;;12.40;11.20;;;;;;;11.45;55.72;95083.19;4970210;28;20114;-73
2021/10/29 11:34:17;;;;;;;11.45;10.48;;;;;;;12.73;52.44;95085.38;4991380;28;20017;-73
2021/10/29 11:36:52;;;;;;;13.65;11.57;;;;;;;12.49;51.75;95085.13;5009073;28;20448;-70
2021/10/29 11:39:21;;;;;;;11.65;10.65;;;;;;;13.22;50.92;95080.53;4991170;28;20026;-73
2021/10/29 11:41:50;;;;;;;13.73;10.23;;;;;;;12.81;51.15;95078.47;4989403;28;20022;-72
2021/10/29 11:44:22;;;;;;;11.65;10.40;;;;;;;13.00;50.83;95072.75;4989573;28;20033;-71
2021/10/29 11:46:50;;;;;;;11.95;10.88;;;;;;;13.03;50.97;95066.75;4989809;28;20026;-70
2021/10/29 11:49:20;;;;;;;11.27;10.10;;;;;;;12.07;52.60;95068.84;4993165;28;20034;-70
2021/10/29 11:51:46;;;;;;;12.52;11.38;;;;;;;12.53;52.02;95071.94;5008434;28;20041;-70
2021/10/29 11:56:50;;;;;;;12.82;11.68;;;;;;;11.90;55.25;95066.19;5009536;28;20626;-71
2021/10/29 12:07:29;;;;;;;10.80;9.85;;;;;;;13.20;52.38;95044.50;5008227;28;20099;-72
2021/10/29 12:10:04;;;;;;;11.93;10.57;;;;;;;13.42;50.88;95046.94;5004274;28;20022;-73
2021/10/29 12:12:31;;;;;;;12.38;11.30;;;;;;;14.18;49.75;95037.09;5008691;28;20428;-72
2021/10/29 12:15:09;;;;;;;12.05;11.05;;;;;;;13.83;50.00;95048.09;5011228;28;20026;-73
2021/10/29 12:17:52;;;;;;;11.82;10.82;;;;;;;13.99;49.93;95035.69;5012773;28;20037;-72
2021/10/29 12:20:24;;;;;;;11.55;10.48;;;;;;;13.33;51.67;95040.88;5006259;28;20014;-75
2021/10/29 12:22:54;;;;;;;12.25;11.07;;;;;;;13.23;51.95;95041.25;5005584;28;20430;-72
2021/10/29 12:28:02;;;;;;;12.07;11.10;;;;;;;13.12;52.55;95032.78;5013322;28;20037;-77
2021/10/29 12:36:54;;;;;;;12.27;11.07;;;;;;;13.86;49.61;95025.25;4998905;28;20112;-75
2021/10/29 13:04:09;;;;;;;13.60;12.40;;;;;;;14.17;49.54;94988.16;4994910;28;20033;-76
2021/10/29 13:06:46;;;;;;;12.68;11.52;;;;;;;14.25;49.57;94983.84;5003325;28;20022;-74
2021/10/29 13:09:28;;;;;;;13.68;12.32;;;;;;;14.03;49.91;94991.13;5012176;28;20510;-73
2021/10/29 13:11:58;;;;;;;13.20;12.10;;;;;;;13.85;50.04;94988.94;5011131;28;20034;-74
2021/10/29 13:16:52;;;;;;;14.15;12.55;;;;;;;14.16;49.20;94988.50;5012043;28;20499;-75
2021/10/29 13:35:50;;;;;;;14.98;13.68;;;;;;;14.08;49.59;94984.03;5006853;28;20482;-74
2021/10/29 13:51:50;;;;;;;13.75;12.55;;;;;;;14.56;47.65;94970.00;5006846;28;20103;-73
2021/10/29 13:54:33;;;;;;;14.68;13.38;;;;;;;15.05;47.24;94970.81;5002273;28;20022;-74
2021/10/29 14:29:32;;;;;;;18.27;16.60;;;;;;;15.37;46.68;94976.34;5010555;28;20119;-74
2021/10/29 14:32:49;;;;;;;17.58;15.90;;;;;;;14.25;49.48;94973.13;5009642;28;20034;-74
2021/10/29 14:34:55;;;;;;;17.45;15.90;;;;;;;13.89;51.10;94979.16;5001410;28;20060;-74
2021/10/29 14:37:42;;;;;;;18.13;16.13;;;;;;;13.58;51.97;94985.69;5006424;28;20029;-76
2021/10/29 14:40:16;;;;;;;18.02;16.38;;;;;;;13.33;52.52;94976.75;4990466;28;20022;-73
2021/10/29 14:42:52;;;;;;;18.80;17.05;;;;;;;13.63;51.91;94990.06;4973237;28;20027;-74
2021/10/29 14:45:27;;;;;;;20.25;18.48;;;;;;;13.46;52.27;94973.06;4990803;28;20022;-75
2021/10/29 15:30:50;;;;;;;26.73;21.40;;;;;;;13.56;52.60;94987.91;4990110;28;20069;-70
2021/10/29 15:43:52;;;;;;;31.00;23.77;;;;;;;13.16;53.59;94995.53;4990042;28;20033;-68
2021/10/29 15:49:04;;;;;;;31.45;26.20;;;;;;;13.31;53.22;94995.00;4991485;28;20089;-67
2021/10/29 15:51:31;;;;;;;32.22;26.73;;;;;;;13.06;53.33;94987.91;4987678;28;20031;-63
2021/10/29 15:54:00;;;;;;;31.95;26.27;;;;;;;12.94;54.20;94984.00;4985078;28;20054;-69
2021/10/29 16:01:27;;;;;;;34.58;28.30;;;;;;;13.00;54.23;94987.31;4993246;28;20131;-65
2021/10/29 16:17:02;;;;;;;38.10;29.98;;;;;;;13.00;54.21;94984.63;4993303;28;20022;-65
2021/10/29 16:17:37;;;;;;;49.38;34.72;;;;;;;12.98;53.36;94998.28;4993303;28;20045;-68
2021/10/29 16:20:03;;;;;;;52.70;34.83;;;;;;;12.79;53.80;94987.22;4988042;28;20113;-66
2021/10/29 16:22:33;;;;;;;47.90;33.00;;;;;;;12.56;54.88;95007.28;4989220;28;20023;-63
2021/10/29 16:27:47;;;;;;;55.58;36.88;;;;;;;12.47;54.26;95001.94;4973914;28;20034;-66
2021/10/29 16:30:12;;;;;;;49.92;35.10;;;;;;;12.60;53.93;95003.66;4955803;28;20109;-66
2021/10/29 16:35:22;;;;;;;58.22;37.30;;;;;;;11.90;56.38;94995.00;4978433;28;20045;-66